sensor_id;sensor_type;location;lat;lon;timestamp;pressure;altitude;pressure_sealevel;temperature
63297;BMP280;49419;51.716;-4.948;2023-07-29T03:36:30;100053.53;;;17.70
63297;BMP280;49419;51.716;-4.948;2023-07-29T03:38:57;100035.41;;;17.44
63297;BMP280;49419;51.716;-4.948;2023-07-29T03:42:03;100039.75;;;17.35
63297;BMP280;49419;51.716;-4.948;2023-07-29T03:44:45;100037.97;;;17.30
63297;BMP280;49419;51.716;-4.948;2023-07-29T03:54:13;100050.06;;;17.20
63297;BMP280;49419;51.716;-4.948;2023-07-29T03:57:15;100048.34;;;17.18
63297;BMP280;49419;51.716;-4.948;2023-07-29T04:00:12;100060.47;;;17.19
63297;BMP280;49419;51.716;-4.948;2023-07-29T04:07:59;100046.63;;;17.20
63297;BMP280;49419;51.716;-4.948;2023-07-29T04:13:11;100050.97;;;17.27
63297;BMP280;49419;51.716;-4.948;2023-07-29T04:16:10;100057.03;;;17.30
63297;BMP280;49419;51.716;-4.948;2023-07-29T04:40:02;100062.22;;;17.18
63297;BMP280;49419;51.716;-4.948;2023-07-29T04:43:30;100075.16;;;17.24
63297;BMP280;49419;51.716;-4.948;2023-07-29T04:46:24;100074.28;;;17.22
63297;BMP280;49419;51.716;-4.948;2023-07-29T04:48:58;100064.78;;;17.23
63297;BMP280;49419;51.716;-4.948;2023-07-29T04:51:27;100069.13;;;17.24
63297;BMP280;49419;51.716;-4.948;2023-07-29T04:54:12;100080.34;;;17.32
63297;BMP280;49419;51.716;-4.948;2023-07-29T06:09:11;100093.31;;;18.00
63297;BMP280;49419;51.716;-4.948;2023-07-29T06:12:17;100100.22;;;17.93
63297;BMP280;49419;51.716;-4.948;2023-07-29T06:49:22;100114.72;;;18.75
63297;BMP280;49419;51.716;-4.948;2023-07-29T07:21:37;100149.38;;;18.76
63297;BMP280;49419;51.716;-4.948;2023-07-29T07:39:49;100150.16;;;19.00
63297;BMP280;49419;51.716;-4.948;2023-07-29T07:55:55;100165.59;;;19.31
63297;BMP280;49419;51.716;-4.948;2023-07-29T08:12:36;100178.50;;;19.44
63297;BMP280;49419;51.716;-4.948;2023-07-29T08:34:15;100169.44;;;19.98
63297;BMP280;49419;51.716;-4.948;2023-07-29T08:36:57;100178.81;;;20.20
63297;BMP280;49419;51.716;-4.948;2023-07-29T08:46:54;100182.41;;;20.07
63297;BMP280;49419;51.716;-4.948;2023-07-29T08:49:47;100162.50;;;19.98
63297;BMP280;49419;51.716;-4.948;2023-07-29T09:13:29;100186.63;;;20.20
63297;BMP280;49419;51.716;-4.948;2023-07-29T09:16:03;100171.00;;;20.19
63297;BMP280;49419;51.716;-4.948;2023-07-29T09:18:41;100186.56;;;20.23
63297;BMP280;49419;51.716;-4.948;2023-07-29T09:21:24;100197.00;;;20.25
63297;BMP280;49419;51.716;-4.948;2023-07-29T09:23:52;100188.22;;;20.33
63297;BMP280;49419;51.716;-4.948;2023-07-29T09:26:27;100193.34;;;20.42
63297;BMP280;49419;51.716;-4.948;2023-07-29T09:28:59;100208.88;;;20.54
63297;BMP280;49419;51.716;-4.948;2023-07-29T09:31:30;100201.94;;;20.50
63297;BMP280;49419;51.716;-4.948;2023-07-29T09:34:23;100195.06;;;20.43
63297;BMP280;49419;51.716;-4.948;2023-07-29T09:37:07;100209.06;;;20.36
63297;BMP280;49419;51.716;-4.948;2023-07-29T09:39:36;100213.41;;;20.31
63297;BMP280;49419;51.716;-4.948;2023-07-29T09:42:21;100198.69;;;20.30
63297;BMP280;49419;51.716;-4.948;2023-07-29T09:45:14;100200.44;;;20.28
63297;BMP280;49419;51.716;-4.948;2023-07-29T09:47:51;100206.53;;;20.27
63297;BMP280;49419;51.716;-4.948;2023-07-29T09:50:18;100216.03;;;20.34
63297;BMP280;49419;51.716;-4.948;2023-07-29T09:52:46;100218.56;;;20.40
63297;BMP280;49419;51.716;-4.948;2023-07-29T09:55:18;100222.00;;;20.42
63297;BMP280;49419;51.716;-4.948;2023-07-29T09:57:56;100226.41;;;20.37
63297;BMP280;49419;51.716;-4.948;2023-07-29T10:00:44;100230.00;;;20.24
63297;BMP280;49419;51.716;-4.948;2023-07-29T10:03:17;100223.13;;;20.17
63297;BMP280;49419;51.716;-4.948;2023-07-29T10:05:50;100220.44;;;20.23
63297;BMP280;49419;51.716;-4.948;2023-07-29T10:11:02;100215.81;;;20.52
63297;BMP280;49419;51.716;-4.948;2023-07-29T10:13:37;100225.34;;;20.59
63297;BMP280;49419;51.716;-4.948;2023-07-29T10:16:11;100231.38;;;20.63
63297;BMP280;49419;51.716;-4.948;2023-07-29T10:18:38;100217.53;;;20.57
63297;BMP280;49419;51.716;-4.948;2023-07-29T10:21:10;100225.22;;;20.72
63297;BMP280;49419;51.716;-4.948;2023-07-29T10:24:18;100241.38;;;21.02
63297;BMP280;49419;51.716;-4.948;2023-07-29T10:27:21;100242.13;;;21.11
63297;BMP280;49419;51.716;-4.948;2023-07-29T10:29:49;100248.84;;;21.31
63297;BMP280;49419;51.716;-4.948;2023-07-29T10:32:32;100234.16;;;21.22
63297;BMP280;49419;51.716;-4.948;2023-07-29T10:35:14;100258.59;;;21.18
63297;BMP280;49419;51.716;-4.948;2023-07-29T10:40:23;100266.59;;;21.00
63297;BMP280;49419;51.716;-4.948;2023-07-29T10:43:02;100254.31;;;21.09
63297;BMP280;49419;51.716;-4.948;2023-07-29T10:45:48;100249.09;;;21.11
63297;BMP280;49419;51.716;-4.948;2023-07-29T10:52:12;100253.09;;;21.40
63297;BMP280;49419;51.716;-4.948;2023-07-29T10:57:45;100254.69;;;21.51
63297;BMP280;49419;51.716;-4.948;2023-07-29T11:00:26;100264.19;;;21.57
63297;BMP280;49419;51.716;-4.948;2023-07-29T11:03:01;100263.50;;;21.43
63297;BMP280;49419;51.716;-4.948;2023-07-29T11:08:03;100293.00;;;21.49
63297;BMP280;49419;51.716;-4.948;2023-07-29T11:11:16;100271.31;;;21.43
63297;BMP280;49419;51.716;-4.948;2023-07-29T11:42:37;100292.25;;;21.41
63297;BMP280;49419;51.716;-4.948;2023-07-29T11:45:05;100300.06;;;21.41
63297;BMP280;49419;51.716;-4.948;2023-07-29T11:47:38;100289.81;;;21.24
63297;BMP280;49419;51.716;-4.948;2023-07-29T11:50:10;100300.19;;;21.29
63297;BMP280;49419;51.716;-4.948;2023-07-29T11:52:51;100300.88;;;21.43
63297;BMP280;49419;51.716;-4.948;2023-07-29T11:55:23;100295.59;;;21.51
63297;BMP280;49419;51.716;-4.948;2023-07-29T12:08:08;100303.88;;;21.79
